createdAt,value
2018-07-13T00:02:02.412Z,4.17
2018-07-13T00:04:30.998Z,5.43
2018-07-13T00:06:59.469Z,3.33
2018-07-13T00:09:27.658Z,3.20
2018-07-13T00:11:56.137Z,3.90
2018-07-13T00:14:25.470Z,3.63
2018-07-13T00:16:56.414Z,5.17
2018-07-13T00:19:25.205Z,3.63
2018-07-13T00:21:54.120Z,3.10
2018-07-13T00:24:22.458Z,3.20
2018-07-13T00:26:50.801Z,5.40
2018-07-13T00:29:19.112Z,3.17
2018-07-13T00:31:47.505Z,3.17
2018-07-13T00:34:15.874Z,4.83
2018-07-13T00:36:44.455Z,3.63
2018-07-13T00:39:13.818Z,3.47
2018-07-13T00:41:42.091Z,5.07
2018-07-13T00:44:10.318Z,3.40
2018-07-13T00:46:38.805Z,3.37
2018-07-13T00:49:07.401Z,3.27
2018-07-13T00:51:35.638Z,3.17
2018-07-13T00:54:03.725Z,3.27
2018-07-13T00:56:32.265Z,3.33
2018-07-13T00:59:01.150Z,3.30
2018-07-13T01:01:29.610Z,4.83
2018-07-13T01:03:57.890Z,3.10
2018-07-13T01:06:26.153Z,3.00
2018-07-13T01:08:54.955Z,4.90
2018-07-13T01:11:23.414Z,5.00
2018-07-13T01:13:52.101Z,4.23
2018-07-13T01:16:20.406Z,4.60
2018-07-13T01:18:48.633Z,3.60
2018-07-13T01:21:17.209Z,4.77
2018-07-13T01:23:45.646Z,4.03
2018-07-13T01:26:14.006Z,4.73
2018-07-13T01:28:42.270Z,3.47
2018-07-13T01:31:10.509Z,3.20
2018-07-13T01:33:39.030Z,4.17
2018-07-13T01:36:07.416Z,4.83
2018-07-13T01:38:35.667Z,5.77
2018-07-13T01:41:03.957Z,3.20
2018-07-13T01:43:32.237Z,3.60
2018-07-13T01:46:00.590Z,5.53
2018-07-13T01:48:28.883Z,3.90
2018-07-13T01:50:57.544Z,3.83
2018-07-13T01:53:25.748Z,4.73
2018-07-13T01:55:54.061Z,4.63
2018-07-13T01:58:22.319Z,3.83
2018-07-13T02:00:50.572Z,3.97
2018-07-13T02:03:18.872Z,3.70
2018-07-13T02:05:47.117Z,4.20
2018-07-13T02:08:15.423Z,5.80
2018-07-13T02:10:43.704Z,6.60
2018-07-13T02:13:11.893Z,3.63
2018-07-13T02:15:40.106Z,5.90
2018-07-13T02:18:08.835Z,4.57
2018-07-13T02:20:37.629Z,8.27
2018-07-13T02:23:05.863Z,4.60
2018-07-13T02:25:34.046Z,4.17
2018-07-13T02:28:02.322Z,6.00
2018-07-13T02:30:30.706Z,4.97
2018-07-13T02:32:58.920Z,4.60
2018-07-13T02:35:27.154Z,3.90
2018-07-13T02:37:55.347Z,4.80
2018-07-13T02:40:24.482Z,4.37
2018-07-13T02:42:52.798Z,3.93
2018-07-13T02:45:21.010Z,4.23
2018-07-13T02:47:49.225Z,4.10
2018-07-13T02:50:17.465Z,5.97
2018-07-13T02:52:45.841Z,4.90
2018-07-13T02:55:14.153Z,3.77
2018-07-13T02:57:42.334Z,5.27
2018-07-13T03:00:10.562Z,4.50
2018-07-13T03:02:38.970Z,5.63
2018-07-13T03:05:07.634Z,4.50
2018-07-13T03:07:35.893Z,4.77
2018-07-13T03:10:04.333Z,4.67
2018-07-13T03:12:32.582Z,4.63
2018-07-13T03:15:01.808Z,4.53
2018-07-13T03:17:30.195Z,4.83
2018-07-13T03:19:58.464Z,4.10
2018-07-13T03:22:27.055Z,5.20
2018-07-13T03:24:55.266Z,5.37
2018-07-13T03:27:23.529Z,5.33
2018-07-13T03:29:52.225Z,4.77
2018-07-13T03:32:20.466Z,5.83
2018-07-13T03:34:48.788Z,6.77
2018-07-13T03:37:17.047Z,6.27
2018-07-13T03:39:45.394Z,7.00
2018-07-13T03:42:13.610Z,4.73
2018-07-13T03:44:41.810Z,6.33
2018-07-13T03:47:10.039Z,5.93
2018-07-13T03:49:38.722Z,7.10
2018-07-13T03:52:07.145Z,5.43
2018-07-13T03:54:35.537Z,5.47
2018-07-13T03:57:03.802Z,5.03
2018-07-13T03:59:31.996Z,4.97
2018-07-13T04:02:00.248Z,5.20
2018-07-13T04:04:28.481Z,5.73
2018-07-13T04:06:56.719Z,6.13
2018-07-13T04:09:24.889Z,5.83
2018-07-13T04:11:53.125Z,5.03
2018-07-13T04:14:21.382Z,5.20
2018-07-13T04:16:49.594Z,5.50
2018-07-13T04:19:17.831Z,6.13
2018-07-13T04:21:46.208Z,5.83
2018-07-13T04:24:14.605Z,5.87
2018-07-13T04:26:45.318Z,6.10
2018-07-13T04:29:13.590Z,6.63
2018-07-13T04:31:41.810Z,6.00
2018-07-13T04:34:10.069Z,5.93
2018-07-13T04:36:38.942Z,6.40
2018-07-13T04:39:09.036Z,8.13
2018-07-13T04:41:37.474Z,6.20
2018-07-13T04:44:05.845Z,7.03
2018-07-13T04:46:34.064Z,7.63
2018-07-13T04:49:02.583Z,7.43
2018-07-13T04:51:30.878Z,7.00
2018-07-13T04:53:59.073Z,8.50
2018-07-13T04:56:27.285Z,7.33
2018-07-13T04:58:55.500Z,7.30
2018-07-13T05:01:24.709Z,5.83
2018-07-13T05:03:53.097Z,7.50
2018-07-13T05:06:21.368Z,11.90
2018-07-13T05:08:49.525Z,6.83
2018-07-13T05:11:17.749Z,6.13
2018-07-13T05:13:47.065Z,7.10
2018-07-13T05:16:15.497Z,7.27
2018-07-13T05:18:43.673Z,6.20
2018-07-13T05:21:11.945Z,6.37
2018-07-13T05:23:40.085Z,6.67
2018-07-13T05:26:08.984Z,6.10
2018-07-13T05:28:39.449Z,10.10
2018-07-13T05:31:08.005Z,7.23
2018-07-13T05:33:36.241Z,6.93
2018-07-13T05:36:04.509Z,7.27
2018-07-13T05:38:32.769Z,6.20
2018-07-13T05:41:01.627Z,8.57
2018-07-13T05:43:29.877Z,7.93
2018-07-13T05:45:58.157Z,7.37
2018-07-13T05:48:26.361Z,6.40
2018-07-13T05:50:54.701Z,6.03
2018-07-13T05:53:23.154Z,6.90
2018-07-13T05:55:51.401Z,7.23
2018-07-13T05:58:19.637Z,5.97
2018-07-13T06:00:48.025Z,7.33
2018-07-13T06:03:16.332Z,7.53
2018-07-13T06:05:44.776Z,6.50
2018-07-13T06:08:12.993Z,6.80
2018-07-13T06:10:41.878Z,6.13
2018-07-13T06:13:10.090Z,6.77
2018-07-13T06:15:38.974Z,5.90
2018-07-13T06:18:07.465Z,6.03
2018-07-13T06:20:35.672Z,6.60
2018-07-13T06:23:03.868Z,5.93
2018-07-13T06:25:32.175Z,6.40
2018-07-13T06:28:00.373Z,9.07
2018-07-13T06:30:28.603Z,7.47
2018-07-13T06:32:56.809Z,7.17
2018-07-13T06:35:26.185Z,8.83
2018-07-13T06:38:24.051Z,8.27
2018-07-13T06:40:52.289Z,6.87
2018-07-13T06:43:20.501Z,9.93
2018-07-13T06:45:48.718Z,6.50
2018-07-13T06:48:17.081Z,9.03
2018-07-13T06:50:45.348Z,6.33
2018-07-13T06:53:15.442Z,6.90
2018-07-13T06:55:43.753Z,9.73
2018-07-13T06:58:23.615Z,7.63
2018-07-13T07:01:08.297Z,6.10
2018-07-13T07:03:42.757Z,6.87
2018-07-13T07:06:15.350Z,6.17
2018-07-13T07:08:50.782Z,8.27
2018-07-13T07:11:19.096Z,5.73
2018-07-13T07:13:47.646Z,6.93
2018-07-13T07:16:16.689Z,10.17
2018-07-13T07:18:45.935Z,6.67
2018-07-13T07:21:14.477Z,6.47
2018-07-13T07:23:42.678Z,5.53
2018-07-13T07:26:10.954Z,8.10
2018-07-13T07:28:39.675Z,5.90
2018-07-13T07:31:08.078Z,6.20
2018-07-13T07:33:36.356Z,7.53
2018-07-13T07:36:04.574Z,5.63
2018-07-13T07:38:33.098Z,7.53
2018-07-13T07:41:01.277Z,7.23
2018-07-13T07:43:29.481Z,6.20
2018-07-13T07:45:57.778Z,5.97
2018-07-13T07:48:26.299Z,5.83
2018-07-13T07:50:54.747Z,5.00
2018-07-13T07:53:23.239Z,6.30
2018-07-13T07:55:51.528Z,4.57
2018-07-13T07:58:19.773Z,6.00
2018-07-13T08:00:48.174Z,5.43
2018-07-13T08:03:16.619Z,4.80
2018-07-13T08:05:45.664Z,4.97
2018-07-13T08:08:13.943Z,3.90
2018-07-13T08:10:42.138Z,4.47
2018-07-13T08:13:10.343Z,4.47
2018-07-13T08:15:38.679Z,4.93
2018-07-13T08:18:06.886Z,6.47
2018-07-13T08:20:36.691Z,4.23
2018-07-13T08:23:08.159Z,5.00
2018-07-13T08:25:37.598Z,4.30
2018-07-13T08:28:06.902Z,4.23
2018-07-13T08:30:39.524Z,3.83
2018-07-13T08:33:07.784Z,4.03
2018-07-13T08:35:36.029Z,7.70
2018-07-13T08:38:05.114Z,6.03
2018-07-13T08:40:33.465Z,3.83
2018-07-13T08:43:02.228Z,3.90
2018-07-13T08:45:30.738Z,4.77
2018-07-13T08:47:58.974Z,3.27
2018-07-13T08:50:27.544Z,3.77
2018-07-13T08:52:56.318Z,5.40
2018-07-13T08:55:24.794Z,3.90
2018-07-13T08:57:53.706Z,3.50
2018-07-13T09:00:21.934Z,5.37
2018-07-13T09:02:50.402Z,4.60
2018-07-13T09:05:18.605Z,4.57
2018-07-13T09:07:48.003Z,5.73
2018-07-13T09:10:17.219Z,4.77
2018-07-13T09:12:46.087Z,5.13
2018-07-13T09:15:15.350Z,2.83
2018-07-13T09:17:45.700Z,3.50
2018-07-13T09:20:14.095Z,2.40
2018-07-13T09:22:42.440Z,3.53
2018-07-13T09:25:11.982Z,3.50
2018-07-13T09:27:40.754Z,3.27
2018-07-13T09:30:10.266Z,4.63
2018-07-13T09:32:38.740Z,2.83
2018-07-13T09:35:06.957Z,2.57
2018-07-13T09:37:35.415Z,4.80
2018-07-13T09:40:03.648Z,3.40
2018-07-13T09:42:31.917Z,4.07
2018-07-13T09:45:00.396Z,4.13
2018-07-13T09:47:29.074Z,2.43
2018-07-13T09:49:57.294Z,3.30
2018-07-13T09:52:25.514Z,2.67
2018-07-13T09:54:54.333Z,4.20
2018-07-13T09:57:22.747Z,3.17
2018-07-13T09:59:50.955Z,2.83
2018-07-13T10:02:19.201Z,2.70
2018-07-13T10:04:47.422Z,2.93
2018-07-13T10:07:17.111Z,2.40
2018-07-13T10:09:45.668Z,2.80
2018-07-13T10:12:14.121Z,2.83
2018-07-13T10:14:42.472Z,3.10
2018-07-13T10:17:11.915Z,2.57
2018-07-13T10:19:40.250Z,3.97
2018-07-13T10:22:11.302Z,2.87
2018-07-13T10:24:39.907Z,5.97
2018-07-13T10:27:08.703Z,3.70
2018-07-13T10:29:40.519Z,2.57
2018-07-13T10:32:09.293Z,2.37
2018-07-13T10:34:37.554Z,2.73
2018-07-13T10:37:05.898Z,2.77
2018-07-13T10:39:34.466Z,2.43
2018-07-13T10:42:02.680Z,4.30
2018-07-13T10:44:31.188Z,2.90
2018-07-13T10:46:59.635Z,2.93
2018-07-13T10:49:27.838Z,2.70
2018-07-13T10:51:56.320Z,3.57
2018-07-13T10:54:24.810Z,2.80
2018-07-13T10:56:52.832Z,2.73
2018-07-13T10:59:21.205Z,2.70
2018-07-13T11:01:49.507Z,4.47
2018-07-13T11:04:17.711Z,3.17
2018-07-13T11:06:45.962Z,3.00
2018-07-13T11:09:14.191Z,3.50
2018-07-13T11:11:42.411Z,2.27
2018-07-13T11:14:11.552Z,4.70
2018-07-13T11:16:40.254Z,2.63
2018-07-13T11:19:09.339Z,3.90
2018-07-13T11:21:38.279Z,3.60
2018-07-13T11:24:06.642Z,4.00
2018-07-13T11:26:34.829Z,2.87
2018-07-13T11:29:03.036Z,5.27
2018-07-13T11:31:31.888Z,2.60
2018-07-13T11:34:00.183Z,5.93
2018-07-13T11:36:29.324Z,3.13
2018-07-13T11:38:58.141Z,3.03
2018-07-13T11:41:26.346Z,3.13
2018-07-13T11:43:55.138Z,4.57
2018-07-13T11:46:23.715Z,3.43
2018-07-13T11:48:51.908Z,3.23
2018-07-13T11:51:20.130Z,3.33
2018-07-13T11:53:48.392Z,3.30
2018-07-13T11:56:16.798Z,2.80
2018-07-13T11:58:46.261Z,3.17
2018-07-13T12:01:15.731Z,3.00
2018-07-13T12:03:43.616Z,3.33
2018-07-13T12:06:11.850Z,3.73
2018-07-13T12:08:40.044Z,5.23
2018-07-13T12:11:08.419Z,2.30
2018-07-13T12:13:36.702Z,3.03
2018-07-13T12:16:05.074Z,2.43
2018-07-13T12:18:33.288Z,2.57
2018-07-13T12:21:01.715Z,3.43
2018-07-13T12:23:30.100Z,2.23
2018-07-13T12:25:58.322Z,2.70
2018-07-13T12:28:26.957Z,2.43
2018-07-13T12:30:55.221Z,2.13
2018-07-13T12:33:23.515Z,2.30
2018-07-13T12:35:51.729Z,2.43
2018-07-13T12:38:19.957Z,3.20
2018-07-13T12:40:48.218Z,3.23
2018-07-13T12:43:17.479Z,2.70
2018-07-13T12:45:45.767Z,3.10
2018-07-13T12:48:14.091Z,2.57
2018-07-13T12:50:42.375Z,2.80
2018-07-13T12:53:11.246Z,2.50
2018-07-13T12:55:39.798Z,4.30
2018-07-13T12:58:08.157Z,2.60
2018-07-13T13:00:36.402Z,3.00
2018-07-13T13:03:04.639Z,2.70
2018-07-13T13:05:32.978Z,2.77
2018-07-13T13:08:01.815Z,3.27
2018-07-13T13:10:30.149Z,3.93
2018-07-13T13:12:58.503Z,3.00
2018-07-13T13:15:26.848Z,2.57
2018-07-13T13:17:55.030Z,2.87
2018-07-13T13:20:23.344Z,3.63
2018-07-13T13:22:51.649Z,3.10
2018-07-13T13:25:19.933Z,2.37
2018-07-13T13:27:48.247Z,3.70
2018-07-13T13:30:17.126Z,5.27
2018-07-13T13:32:45.707Z,4.00
2018-07-13T13:35:14.125Z,4.57
2018-07-13T13:37:42.451Z,3.37
2018-07-13T13:40:10.697Z,3.20
2018-07-13T13:42:39.062Z,2.53
2018-07-13T13:45:07.423Z,2.77
2018-07-13T13:47:35.635Z,4.07
2018-07-13T13:56:09.790Z,2.67
2018-07-13T13:58:38.454Z,2.60
2018-07-13T14:01:07.366Z,2.50
2018-07-13T14:03:35.655Z,3.10
2018-07-13T14:06:03.942Z,3.03
2018-07-13T14:08:32.624Z,2.57
2018-07-13T14:11:00.962Z,2.70
2018-07-13T14:13:29.540Z,3.00
2018-07-13T14:15:57.788Z,2.90
2018-07-13T14:18:25.999Z,2.73
2018-07-13T14:20:54.283Z,2.50
2018-07-13T14:23:23.542Z,3.60
2018-07-13T14:25:51.783Z,3.23
2018-07-13T14:28:20.358Z,3.00
2018-07-13T14:30:48.574Z,2.73
2018-07-13T14:33:18.643Z,3.00
2018-07-13T14:35:47.449Z,2.53
2018-07-13T14:38:15.704Z,2.70
2018-07-13T14:40:43.959Z,3.80
2018-07-13T14:43:12.206Z,4.07
2018-07-13T14:45:40.450Z,2.40
2018-07-13T14:48:08.799Z,2.97
2018-07-13T14:50:37.081Z,2.33
2018-07-13T14:53:05.449Z,2.97
2018-07-13T14:55:33.651Z,2.50
2018-07-13T14:58:02.854Z,3.03
2018-07-13T15:00:31.204Z,3.80
2018-07-13T15:02:59.479Z,3.13
2018-07-13T15:05:27.777Z,2.73
2018-07-13T15:07:56.001Z,3.20
2018-07-13T15:10:24.910Z,3.37
2018-07-13T15:12:53.235Z,3.13
2018-07-13T15:15:21.222Z,2.93
2018-07-13T15:17:49.478Z,4.07
2018-07-13T15:20:17.682Z,2.27
2018-07-13T15:22:45.975Z,4.97
2018-07-13T15:25:14.214Z,3.53
2018-07-13T15:27:42.453Z,2.87
2018-07-13T15:30:10.711Z,2.50
2018-07-13T15:32:39.244Z,2.90
2018-07-13T15:35:07.500Z,2.53
2018-07-13T15:37:35.693Z,3.87
2018-07-13T15:40:03.924Z,7.07
2018-07-13T15:42:32.293Z,3.07
2018-07-13T15:45:01.143Z,6.03
2018-07-13T15:47:29.724Z,3.13
2018-07-13T15:49:58.031Z,3.37
2018-07-13T15:52:26.291Z,2.40
2018-07-13T15:54:54.598Z,4.57
2018-07-13T15:57:22.918Z,2.37
2018-07-13T15:59:51.104Z,2.80
2018-07-13T16:02:19.422Z,5.20
2018-07-13T16:04:47.693Z,2.57
2018-07-13T16:07:16.360Z,2.73
2018-07-13T16:09:44.630Z,5.90
2018-07-13T16:12:13.107Z,2.77
2018-07-13T16:14:41.407Z,3.60
2018-07-13T16:17:10.315Z,2.70
2018-07-13T16:19:38.573Z,2.53
2018-07-13T16:22:06.904Z,2.90
2018-07-13T16:24:35.231Z,2.37
2018-07-13T16:27:04.077Z,2.40
2018-07-13T16:29:32.477Z,2.30
2018-07-13T16:32:00.796Z,3.30
2018-07-13T16:34:29.116Z,4.37
2018-07-13T16:36:57.431Z,3.53
2018-07-13T16:39:25.666Z,2.73
2018-07-13T16:41:54.078Z,4.57
2018-07-13T16:44:22.487Z,3.07
2018-07-13T16:46:51.022Z,2.40
2018-07-13T16:49:19.379Z,3.73
2018-07-13T16:51:47.774Z,5.43
2018-07-13T16:54:16.142Z,2.60
2018-07-13T16:56:45.208Z,2.40
2018-07-13T16:59:13.417Z,2.53
2018-07-13T17:01:41.868Z,2.27
2018-07-13T17:04:10.093Z,2.47
2018-07-13T17:06:39.534Z,3.57
2018-07-13T17:09:07.897Z,3.37
2018-07-13T17:11:36.746Z,1.93
2018-07-13T17:14:04.971Z,2.87
2018-07-13T17:16:33.242Z,2.87
2018-07-13T17:19:01.491Z,3.63
2018-07-13T17:21:29.776Z,2.50
2018-07-13T17:23:58.112Z,2.50
2018-07-13T17:26:26.399Z,3.37
2018-07-13T17:28:54.743Z,2.80
2018-07-13T17:31:23.517Z,4.23
2018-07-13T17:33:52.025Z,2.50
2018-07-13T17:36:20.456Z,3.27
2018-07-13T17:38:48.688Z,4.90
2018-07-13T17:41:17.612Z,5.03
2018-07-13T17:43:46.512Z,3.80
2018-07-13T17:46:14.731Z,2.20
2018-07-13T17:48:43.005Z,3.23
2018-07-13T17:51:11.246Z,2.80
2018-07-13T17:53:39.617Z,2.67
2018-07-13T17:56:10.030Z,2.20
2018-07-13T17:58:38.590Z,2.47
2018-07-13T18:01:08.002Z,2.40
2018-07-13T18:03:36.261Z,2.80
2018-07-13T18:06:04.635Z,3.17
2018-07-13T18:08:32.646Z,2.77
2018-07-13T18:11:00.933Z,4.53
2018-07-13T18:13:29.267Z,2.20
2018-07-13T18:15:57.593Z,2.97
2018-07-13T18:18:25.792Z,2.87
2018-07-13T18:20:54.803Z,2.17
2018-07-13T18:23:23.298Z,5.13
2018-07-13T18:25:51.515Z,1.97
2018-07-13T18:28:19.778Z,2.43
2018-07-13T18:30:48.090Z,1.67
2018-07-13T18:33:16.944Z,2.30
2018-07-13T18:35:45.297Z,2.63
2018-07-13T18:38:13.503Z,2.50
2018-07-13T18:40:41.820Z,2.63
2018-07-13T18:43:10.570Z,4.40
2018-07-13T18:45:38.997Z,4.17
2018-07-13T18:48:08.380Z,2.70
2018-07-13T18:50:36.584Z,3.40
2018-07-13T18:53:04.876Z,3.10
2018-07-13T18:55:33.190Z,3.57
2018-07-13T18:58:02.101Z,3.60
2018-07-13T19:00:32.511Z,3.57
2018-07-13T19:03:01.462Z,2.63
2018-07-13T19:05:29.678Z,3.07
2018-07-13T19:07:58.007Z,5.23
2018-07-13T19:10:26.330Z,4.87
2018-07-13T19:12:54.723Z,5.33
2018-07-13T19:15:23.925Z,3.87
2018-07-13T19:17:52.186Z,3.70
2018-07-13T19:20:20.595Z,7.60
2018-07-13T19:22:48.938Z,6.53
2018-07-13T19:25:18.102Z,4.07
2018-07-13T19:27:46.553Z,5.13
2018-07-13T19:30:14.945Z,4.17
2018-07-13T19:32:43.201Z,3.60
2018-07-13T19:35:11.470Z,5.43
2018-07-13T19:37:40.728Z,4.20
2018-07-13T19:40:09.142Z,3.40
2018-07-13T19:42:37.373Z,3.43
2018-07-13T19:45:05.686Z,3.97
2018-07-13T19:47:34.320Z,4.50
2018-07-13T19:50:02.732Z,3.30
2018-07-13T19:52:31.192Z,3.20
2018-07-13T19:54:59.507Z,3.23
2018-07-13T19:57:27.841Z,6.47
2018-07-13T19:59:56.309Z,3.43
2018-07-13T20:02:24.743Z,3.03
2018-07-13T20:04:52.980Z,7.90
2018-07-13T20:07:21.238Z,11.17
2018-07-13T20:09:49.452Z,4.40
2018-07-13T20:12:18.330Z,3.60
2018-07-13T20:14:47.106Z,3.40
2018-07-13T20:17:16.055Z,3.30
2018-07-13T20:19:44.259Z,3.40
2018-07-13T20:22:12.543Z,3.20
2018-07-13T20:24:40.753Z,3.57
2018-07-13T20:27:09.933Z,4.57
2018-07-13T20:29:38.553Z,3.40
2018-07-13T20:32:06.782Z,7.13
2018-07-13T20:34:35.050Z,4.57
2018-07-13T20:37:03.276Z,4.17
2018-07-13T20:39:32.229Z,3.63
2018-07-13T20:42:00.381Z,3.60
2018-07-13T20:44:28.633Z,3.53
2018-07-13T20:46:56.874Z,4.37
2018-07-13T20:49:25.241Z,6.80
2018-07-13T20:51:53.572Z,3.17
2018-07-13T20:54:21.793Z,3.80
2018-07-13T20:56:50.065Z,2.90
2018-07-13T20:59:18.279Z,3.50
2018-07-13T21:01:47.129Z,4.30
2018-07-13T21:04:16.129Z,3.80
2018-07-13T21:06:44.389Z,3.43
2018-07-13T21:09:12.653Z,3.27
2018-07-13T21:11:40.925Z,3.90
2018-07-13T21:14:09.866Z,3.60
2018-07-13T21:16:38.262Z,3.37
2018-07-13T21:19:06.598Z,3.70
2018-07-13T21:21:34.862Z,5.60
2018-07-13T21:24:03.085Z,6.17
2018-07-13T21:26:31.981Z,4.47
2018-07-13T21:29:00.955Z,4.07
2018-07-13T21:31:29.210Z,3.90
2018-07-13T21:33:57.549Z,3.77
2018-07-13T21:36:25.802Z,4.23
2018-07-13T21:38:54.630Z,3.77
2018-07-13T21:41:22.979Z,5.47
2018-07-13T21:43:51.199Z,3.60
2018-07-13T21:46:19.572Z,5.43
2018-07-13T21:48:48.885Z,4.03
2018-07-13T21:51:17.290Z,7.67
2018-07-13T21:53:46.261Z,5.97
2018-07-13T21:56:14.510Z,4.30
2018-07-13T21:58:42.737Z,5.23
2018-07-13T22:01:10.970Z,5.63
2018-07-13T22:03:39.263Z,5.60
2018-07-13T22:06:07.826Z,5.90
2018-07-13T22:08:36.091Z,10.87
2018-07-13T22:11:04.315Z,7.17
2018-07-13T22:13:32.590Z,8.20
2018-07-13T22:16:01.348Z,7.10
2018-07-13T22:18:30.632Z,5.80
2018-07-13T22:20:59.037Z,6.43
2018-07-13T22:23:27.407Z,8.40
2018-07-13T22:25:55.894Z,7.43
2018-07-13T22:28:25.022Z,7.77
2018-07-13T22:30:53.451Z,6.97
2018-07-13T22:33:21.761Z,8.27
2018-07-13T22:35:50.054Z,6.47
2018-07-13T22:38:18.270Z,6.80
2018-07-13T22:40:47.034Z,6.63
2018-07-13T22:43:15.325Z,10.80
2018-07-13T22:45:43.631Z,7.40
2018-07-13T22:48:11.838Z,6.07
2018-07-13T22:50:40.799Z,6.07
2018-07-13T22:53:09.264Z,7.53
2018-07-13T22:55:37.614Z,5.93
2018-07-13T22:58:06.055Z,7.47
2018-07-13T23:00:34.269Z,6.23
2018-07-13T23:03:03.280Z,6.63
2018-07-13T23:05:31.690Z,5.60
2018-07-13T23:07:59.932Z,5.67
2018-07-13T23:10:28.298Z,7.40
2018-07-13T23:12:56.493Z,7.20
2018-07-13T23:15:24.881Z,5.93
2018-07-13T23:17:53.206Z,5.40
2018-07-13T23:20:21.565Z,7.43
2018-07-13T23:22:49.861Z,5.17
2018-07-13T23:25:18.083Z,5.87
2018-07-13T23:27:47.022Z,5.80
2018-07-13T23:30:15.350Z,6.23
2018-07-13T23:32:43.649Z,6.50
2018-07-13T23:35:11.899Z,6.53
2018-07-13T23:37:41.164Z,7.07
2018-07-13T23:40:09.614Z,7.27
2018-07-13T23:42:37.826Z,7.23
2018-07-13T23:45:06.143Z,8.23
2018-07-13T23:47:34.382Z,8.87
2018-07-13T23:50:02.749Z,6.20
2018-07-13T23:52:31.046Z,6.70
2018-07-13T23:54:59.270Z,8.13
2018-07-13T23:57:27.526Z,8.07
2018-07-13T23:59:55.901Z,5.90
